createdAt,value
2022-12-03T00:01:52.216Z,97056.47
2022-12-03T00:04:20.699Z,97054.28
2022-12-03T00:06:49.141Z,97057.56
2022-12-03T00:09:17.865Z,97051.06
2022-12-03T00:11:46.163Z,97060.75
2022-12-03T00:14:14.682Z,97064.50
2022-12-03T00:16:44.602Z,97061.84
2022-12-03T00:19:13.317Z,97062.63
2022-12-03T00:21:41.785Z,97064.00
2022-12-03T00:24:10.478Z,97061.31
2022-12-03T00:26:38.800Z,97064.00
2022-12-03T00:29:07.521Z,97067.50
2022-12-03T00:31:36.027Z,97063.44
2022-12-03T00:34:05.821Z,97059.38
2022-12-03T00:36:34.290Z,97055.59
2022-12-03T00:39:02.587Z,97056.13
2022-12-03T00:41:31.011Z,97054.75
2022-12-03T00:43:59.341Z,97055.25
2022-12-03T00:46:28.217Z,97062.03
2022-12-03T00:48:56.621Z,97061.78
2022-12-03T00:51:26.374Z,97059.88
2022-12-03T00:53:54.770Z,97066.88
2022-12-03T00:56:23.369Z,97068.72
2022-12-03T00:58:51.830Z,97063.91
2022-12-03T01:01:20.575Z,97063.84
2022-12-03T01:03:49.030Z,97065.50
2022-12-03T01:06:17.463Z,97065.22
2022-12-03T01:08:47.188Z,97069.00
2022-12-03T01:11:30.552Z,97064.19
2022-12-03T01:13:59.476Z,97061.47
2022-12-03T01:16:28.039Z,97057.69
2022-12-03T01:18:56.456Z,97068.22
2022-12-03T01:21:24.916Z,97061.22
2022-12-03T01:23:54.738Z,97060.94
2022-12-03T01:26:23.489Z,97061.16
2022-12-03T01:28:51.853Z,97058.25
2022-12-03T01:31:43.641Z,97053.44
2022-12-03T01:34:12.083Z,97058.81
2022-12-03T01:36:40.626Z,97054.25
2022-12-03T01:39:10.630Z,97058.81
2022-12-03T01:41:40.118Z,97053.97
2022-12-03T01:44:19.185Z,97051.53
2022-12-03T01:46:49.181Z,97056.41
2022-12-03T01:49:21.812Z,97061.81
2022-12-03T01:51:53.581Z,97049.13
2022-12-03T01:54:30.934Z,97057.22
2022-12-03T01:57:00.047Z,97048.59
2022-12-03T01:59:35.470Z,97053.19
2022-12-03T02:02:14.113Z,97051.31
2022-12-03T02:04:42.899Z,97057.47
2022-12-03T02:07:24.602Z,97060.19
2022-12-03T02:09:56.261Z,97059.66
2022-12-03T02:12:32.006Z,97056.97
2022-12-03T02:15:01.466Z,97058.84
2022-12-03T02:17:30.395Z,97064.50
2022-12-03T02:20:01.699Z,97069.91
2022-12-03T02:22:42.481Z,97064.78
2022-12-03T02:25:22.237Z,97063.44
2022-12-03T02:27:51.916Z,97060.47
2022-12-03T02:30:23.838Z,97061.53
2022-12-03T02:32:54.273Z,97062.38
2022-12-03T02:35:25.834Z,97059.13
2022-12-03T02:38:00.230Z,97054.53
2022-12-03T02:40:33.657Z,97052.91
2022-12-03T02:43:03.881Z,97064.75
2022-12-03T02:45:37.758Z,97053.97
2022-12-03T02:48:11.960Z,97059.63
2022-12-03T02:50:45.048Z,97058.81
2022-12-03T02:53:18.834Z,97062.84
2022-12-03T02:55:50.150Z,97066.38
2022-12-03T02:58:19.256Z,97066.31
2022-12-03T03:00:49.442Z,97062.81
2022-12-03T03:03:19.906Z,97071.69
2022-12-03T03:05:49.964Z,97070.34
2022-12-03T03:08:19.845Z,97067.91
2022-12-03T03:10:50.822Z,97069.31
2022-12-03T03:13:21.523Z,97072.53
2022-12-03T03:15:50.476Z,97072.78
2022-12-03T03:18:20.025Z,97064.97
2022-12-03T03:20:48.522Z,97066.28
2022-12-03T03:23:20.675Z,97057.41
2022-12-03T03:25:57.378Z,97062.03
2022-12-03T03:28:27.657Z,97058.25
2022-12-03T03:30:57.256Z,97053.69
2022-12-03T03:33:26.067Z,97059.38
2022-12-03T03:35:55.563Z,97061.41
2022-12-03T03:38:25.765Z,97065.78
2022-12-03T03:40:57.451Z,97067.69
2022-12-03T03:43:26.667Z,97059.06
2022-12-03T03:45:55.766Z,97063.91
2022-12-03T03:48:24.673Z,97050.97
2022-12-03T03:50:54.222Z,97055.28
2022-12-03T03:53:24.269Z,97067.41
2022-12-03T03:55:53.293Z,97062.56
2022-12-03T03:58:23.390Z,97058.53
2022-12-03T04:00:52.792Z,97054.22
2022-12-03T04:03:21.228Z,97063.09
2022-12-03T04:05:51.000Z,97055.00
2022-12-03T04:08:19.509Z,97051.53
2022-12-03T04:11:05.413Z,97048.31
2022-12-03T04:13:35.471Z,97037.25
2022-12-03T04:16:03.835Z,97045.06
2022-12-03T04:18:44.394Z,97038.06
2022-12-03T04:21:32.022Z,97034.25
2022-12-03T04:24:00.826Z,97042.03
2022-12-03T04:26:47.006Z,97037.47
2022-12-03T04:29:21.130Z,97046.34
2022-12-03T04:32:07.211Z,97034.50
2022-12-03T04:34:53.406Z,97029.97
2022-12-03T04:37:22.075Z,97034.81
2022-12-03T04:39:50.428Z,97033.47
2022-12-03T04:42:18.744Z,97028.88
2022-12-03T04:44:48.429Z,97029.13
2022-12-03T04:47:19.334Z,97041.25
2022-12-03T04:49:50.788Z,97034.22
2022-12-03T04:52:21.491Z,97038.00
2022-12-03T04:54:49.805Z,97026.19
2022-12-03T04:57:18.126Z,97035.34
2022-12-03T04:59:47.819Z,97032.06
2022-12-03T05:02:16.184Z,97032.63
2022-12-03T05:04:44.506Z,97036.69
2022-12-03T05:07:12.796Z,97039.13
2022-12-03T05:09:41.132Z,97047.22
2022-12-03T05:12:09.465Z,97048.31
2022-12-03T05:14:38.097Z,97043.19
2022-12-03T05:17:07.822Z,97042.31
2022-12-03T05:19:53.773Z,97042.94
2022-12-03T05:22:22.082Z,97044.25
2022-12-03T05:24:50.494Z,97036.41
2022-12-03T05:27:23.311Z,97045.34
2022-12-03T05:29:52.569Z,97058.78
2022-12-03T05:32:22.375Z,97050.41
2022-12-03T05:34:51.104Z,97053.09
2022-12-03T05:37:19.626Z,97055.78
2022-12-03T05:39:47.982Z,97054.69
2022-12-03T05:42:33.818Z,97058.72
2022-12-03T05:45:02.432Z,97061.69
2022-12-03T05:47:32.140Z,97054.44
2022-12-03T05:50:00.482Z,97061.97
2022-12-03T05:52:28.817Z,97058.19
2022-12-03T05:54:57.135Z,97055.25
2022-12-03T05:57:25.479Z,97053.31
2022-12-03T05:59:54.206Z,97048.22
2022-12-03T06:02:22.908Z,97054.72
2022-12-03T06:04:52.819Z,97057.41
2022-12-03T06:07:21.329Z,97052.84
2022-12-03T06:09:49.656Z,97067.06
2022-12-03T06:12:18.084Z,97063.06
2022-12-03T06:14:46.479Z,97065.50
2022-12-03T06:17:15.187Z,97069.50
2022-12-03T06:19:43.535Z,97065.47
2022-12-03T06:22:14.482Z,97069.22
2022-12-03T06:24:42.876Z,97069.47
2022-12-03T06:27:11.307Z,97069.72
2022-12-03T06:29:40.392Z,97070.78
2022-12-03T06:32:08.816Z,97073.16
2022-12-03T06:34:37.233Z,97071.53
2022-12-03T06:37:05.718Z,97059.41
2022-12-03T06:39:35.808Z,97066.16
2022-12-03T06:42:04.241Z,97066.72
2022-12-03T06:44:32.706Z,97063.22
2022-12-03T06:47:01.390Z,97062.69
2022-12-03T06:49:30.161Z,97062.13
2022-12-03T06:51:58.451Z,97056.44
2022-12-03T06:54:27.004Z,97060.47
2022-12-03T06:56:57.056Z,97056.16
2022-12-03T06:59:25.790Z,97056.72
2022-12-03T07:01:54.151Z,97056.97
2022-12-03T07:04:22.524Z,97053.47
2022-12-03T07:06:51.118Z,97055.09
2022-12-03T07:09:19.392Z,97048.66
2022-12-03T07:11:47.704Z,97045.94
2022-12-03T07:14:17.398Z,97049.69
2022-12-03T07:16:45.908Z,97045.41
2022-12-03T07:19:14.553Z,97048.88
2022-12-03T07:21:42.972Z,97052.34
2022-12-03T07:24:11.551Z,97066.91
2022-12-03T07:26:40.045Z,97062.28
2022-12-03T07:29:08.339Z,97058.78
2022-12-03T07:31:38.109Z,97052.06
2022-12-03T07:34:06.476Z,97052.88
2022-12-03T07:36:35.792Z,97061.50
2022-12-03T07:39:04.306Z,97053.97
2022-12-03T07:41:32.704Z,97050.16
2022-12-03T07:44:01.331Z,97045.84
2022-12-03T07:46:29.739Z,97046.38
2022-12-03T07:48:59.482Z,97056.88
2022-12-03T07:51:32.179Z,97048.28
2022-12-03T07:54:00.897Z,97047.72
2022-12-03T07:56:29.240Z,97066.03
2022-12-03T07:58:57.839Z,97053.72
2022-12-03T08:01:26.755Z,97052.38
2022-12-03T08:03:55.149Z,97058.84
2022-12-03T08:06:26.064Z,97061.31
2022-12-03T08:08:54.550Z,97054.88
2022-12-03T08:11:23.327Z,97049.25
2022-12-03T08:13:51.638Z,97053.03
2022-12-03T08:16:23.048Z,97052.50
2022-12-03T08:18:55.872Z,97042.53
2022-12-03T08:21:26.667Z,97040.59
2022-12-03T08:23:55.003Z,97035.50
2022-12-03T08:26:29.169Z,97029.34
2022-12-03T08:28:58.428Z,97035.00
2022-12-03T08:31:33.139Z,97028.78
2022-12-03T08:34:18.336Z,97034.16
2022-12-03T08:36:49.432Z,97038.53
2022-12-03T08:39:34.145Z,97035.81
2022-12-03T08:42:31.720Z,97049.28
2022-12-03T08:45:32.280Z,97042.03
2022-12-03T08:48:04.262Z,97039.94
2022-12-03T08:50:37.321Z,97042.66
2022-12-03T08:53:26.969Z,97039.09
2022-12-03T08:55:58.296Z,97040.16
2022-12-03T08:58:39.193Z,97042.84
2022-12-03T09:01:32.664Z,97039.09
2022-12-03T09:04:22.518Z,97037.19
2022-12-03T09:06:51.765Z,97040.44
2022-12-03T09:09:22.011Z,97047.41
2022-12-03T09:11:50.956Z,97045.00
2022-12-03T09:14:21.262Z,97042.84
2022-12-03T09:16:50.665Z,97033.19
2022-12-03T09:19:19.561Z,97033.47
2022-12-03T09:21:47.875Z,97047.13
2022-12-03T09:24:16.545Z,97069.75
2022-12-03T09:26:46.390Z,97067.63
2022-12-03T09:29:14.666Z,97049.59
2022-12-03T09:31:43.072Z,97053.66
2022-12-03T09:34:12.408Z,97057.97
2022-12-03T09:36:40.817Z,97043.75
2022-12-03T09:39:09.182Z,97034.34
2022-12-03T09:41:37.966Z,97047.19
2022-12-03T09:44:12.264Z,97033.50
2022-12-03T09:46:49.139Z,97031.88
2022-12-03T09:49:19.980Z,97035.38
2022-12-03T09:51:48.773Z,97040.22
2022-12-03T09:54:25.947Z,97042.84
2022-12-03T09:56:56.472Z,97031.53
2022-12-03T09:59:31.441Z,97035.00
2022-12-03T10:02:01.087Z,97028.31
2022-12-03T10:04:30.950Z,97023.19
2022-12-03T10:07:00.367Z,97014.09
2022-12-03T10:09:31.460Z,97014.66
2022-12-03T10:12:01.300Z,97024.38
2022-12-03T10:14:32.179Z,97018.47
2022-12-03T10:17:00.975Z,97018.22
2022-12-03T10:19:32.675Z,97020.34
2022-12-03T10:22:01.357Z,97013.63
2022-12-03T10:24:33.443Z,97008.44
2022-12-03T10:27:04.198Z,97003.34
2022-12-03T10:29:36.043Z,97008.16
2022-12-03T10:32:07.623Z,97005.47
2022-12-03T10:34:38.871Z,97003.88
2022-12-03T10:37:14.982Z,97009.78
2022-12-03T10:40:05.301Z,97009.75
2022-12-03T10:42:36.048Z,97004.38
2022-12-03T10:45:26.712Z,97009.50
2022-12-03T10:48:08.332Z,97013.28
2022-12-03T10:50:37.257Z,97013.78
2022-12-03T10:53:06.109Z,97010.59
2022-12-03T10:55:41.017Z,97001.44
2022-12-03T10:58:21.732Z,97007.59
2022-12-03T11:00:53.717Z,97000.91
2022-12-03T11:03:24.993Z,96992.56
2022-12-03T11:05:56.008Z,96987.97
2022-12-03T11:08:28.847Z,96988.00
2022-12-03T11:10:59.823Z,96989.63
2022-12-03T11:13:52.315Z,96996.13
2022-12-03T11:17:09.229Z,96986.97
2022-12-03T11:19:48.832Z,96982.09
2022-12-03T11:22:46.292Z,96975.09
2022-12-03T11:25:56.623Z,96971.03
2022-12-03T11:28:52.559Z,96968.34
2022-12-03T11:31:42.626Z,96964.34
2022-12-03T11:34:51.482Z,96954.88
2022-12-03T11:37:25.596Z,96951.69
2022-12-03T11:40:39.064Z,96957.88
2022-12-03T11:43:11.963Z,96954.66
2022-12-03T11:45:41.932Z,96963.25
2022-12-03T11:48:16.333Z,96966.47
2022-12-03T11:50:52.817Z,96960.00
2022-12-03T11:53:24.670Z,96952.47
2022-12-03T11:56:06.561Z,96947.63
2022-12-03T11:58:38.228Z,96940.94
2022-12-03T12:01:09.277Z,96936.88
2022-12-03T12:03:44.907Z,96935.00
2022-12-03T12:06:17.473Z,96927.69
2022-12-03T12:08:58.359Z,96933.31
2022-12-03T12:11:30.184Z,96929.03
2022-12-03T12:14:00.055Z,96923.91
2022-12-03T12:16:53.100Z,96927.19
2022-12-03T12:19:37.685Z,96919.91
2022-12-03T12:22:32.890Z,96914.00
2022-12-03T12:25:02.939Z,96912.91
2022-12-03T12:27:36.117Z,96908.91
2022-12-03T12:30:08.808Z,96905.13
2022-12-03T12:32:47.193Z,96908.63
2022-12-03T12:35:20.412Z,96915.34
2022-12-03T12:37:59.022Z,96918.88
2022-12-03T12:40:31.237Z,96915.88
2022-12-03T12:43:10.040Z,96907.25
2022-12-03T12:45:44.196Z,96902.72
2022-12-03T12:48:23.520Z,96899.22
2022-12-03T12:51:00.162Z,96901.66
2022-12-03T12:53:33.992Z,96895.97
2022-12-03T12:56:12.301Z,96889.53
2022-12-03T12:58:43.832Z,96895.47
2022-12-03T13:01:22.369Z,96893.88
2022-12-03T13:03:53.630Z,96897.09
2022-12-03T13:06:28.276Z,96887.09
2022-12-03T13:09:01.203Z,96887.63
2022-12-03T13:11:41.269Z,96880.94
2022-12-03T13:14:18.709Z,96880.91
2022-12-03T13:16:48.162Z,96876.84
2022-12-03T13:19:25.547Z,96880.09
2022-12-03T13:21:57.124Z,96884.94
2022-12-03T13:24:37.034Z,96880.91
2022-12-03T13:27:25.645Z,96874.69
2022-12-03T13:29:58.089Z,96873.38
2022-12-03T13:32:32.481Z,96872.28
2022-12-03T13:35:06.634Z,96876.31
2022-12-03T13:37:35.413Z,96860.44
2022-12-03T13:40:24.829Z,96859.31
2022-12-03T13:42:54.347Z,96861.47
2022-12-03T13:45:42.313Z,96860.72
2022-12-03T13:48:22.393Z,96862.63
2022-12-03T13:50:52.530Z,96867.19
2022-12-03T13:53:27.871Z,96864.78
2022-12-03T13:56:05.111Z,96854.28
2022-12-03T13:58:33.326Z,96851.84
2022-12-03T14:01:01.671Z,96853.47
2022-12-03T14:03:30.264Z,96846.47
2022-12-03T14:05:58.643Z,96847.78
2022-12-03T14:08:26.916Z,96844.84
2022-12-03T14:11:00.214Z,96841.88
2022-12-03T14:13:30.515Z,96846.72
2022-12-03T14:15:58.915Z,96845.66
2022-12-03T14:18:27.283Z,96852.38
2022-12-03T14:20:55.629Z,96844.56
2022-12-03T14:23:23.875Z,96844.28
2022-12-03T14:25:52.473Z,96847.25
2022-12-03T14:28:20.735Z,96847.00
2022-12-03T14:30:51.076Z,96847.78
2022-12-03T14:33:19.308Z,96851.84
2022-12-03T14:35:47.611Z,96852.09
2022-12-03T14:38:15.922Z,96855.84
2022-12-03T14:40:44.205Z,96851.00
2022-12-03T14:43:12.757Z,96860.44
2022-12-03T14:45:41.080Z,96857.75
2022-12-03T14:48:10.781Z,96858.03
2022-12-03T14:50:39.028Z,96865.00
2022-12-03T14:53:10.508Z,96853.91
2022-12-03T14:55:38.767Z,96855.03
2022-12-03T14:58:07.044Z,96859.53
2022-12-03T15:00:35.303Z,96856.84
2022-12-03T15:03:03.645Z,96861.44
2022-12-03T15:05:33.311Z,96848.81
2022-12-03T15:08:01.679Z,96869.53
2022-12-03T15:10:30.325Z,96867.34
2022-12-03T15:12:58.600Z,96861.72
2022-12-03T15:15:27.121Z,96858.75
2022-12-03T15:17:55.763Z,96851.72
2022-12-03T15:20:24.332Z,96858.19
2022-12-03T15:22:53.934Z,96842.59
2022-12-03T15:25:25.490Z,96849.59
2022-12-03T15:27:53.999Z,96838.03
2022-12-03T15:30:22.226Z,96840.19
2022-12-03T15:32:50.801Z,96843.13
2022-12-03T15:35:19.095Z,96842.88
2022-12-03T15:37:47.367Z,96841.50
2022-12-03T15:40:17.368Z,96847.16
2022-12-03T15:42:45.664Z,96850.41
2022-12-03T15:45:15.481Z,96846.63
2022-12-03T15:47:44.538Z,96834.56
2022-12-03T15:50:14.204Z,96839.09
2022-12-03T15:52:42.636Z,96841.50
2022-12-03T15:55:11.600Z,96842.03
2022-12-03T15:57:41.277Z,96844.22
2022-12-03T16:00:12.544Z,96839.66
2022-12-03T16:02:41.188Z,96838.31
2022-12-03T16:05:12.738Z,96836.41
2022-12-03T16:07:41.923Z,96833.72
2022-12-03T16:10:13.176Z,96838.81
2022-12-03T16:12:42.947Z,96837.75
2022-12-03T16:15:11.767Z,96840.44
2022-12-03T16:17:40.108Z,96834.56
2022-12-03T16:20:09.980Z,96839.94
2022-12-03T16:22:38.588Z,96836.72
2022-12-03T16:25:08.344Z,96832.66
2022-12-03T16:27:38.047Z,96831.34
2022-12-03T16:30:09.797Z,96826.75
2022-12-03T16:32:38.178Z,96818.44
2022-12-03T16:35:07.411Z,96830.81
2022-12-03T16:37:35.766Z,96822.22
2022-12-03T16:40:04.400Z,96821.97
2022-12-03T16:42:32.705Z,96818.69
2022-12-03T16:45:33.369Z,96822.75
2022-12-03T16:48:03.821Z,96825.69
2022-12-03T16:50:32.041Z,96830.22
2022-12-03T16:53:00.728Z,96832.66
2022-12-03T16:55:29.085Z,96828.66
2022-12-03T16:57:57.418Z,96832.91
2022-12-03T17:00:26.304Z,96839.66
2022-12-03T17:02:54.661Z,96833.19
2022-12-03T17:05:24.371Z,96824.88
2022-12-03T17:07:52.688Z,96824.06
2022-12-03T17:10:21.179Z,96818.41
2022-12-03T17:13:08.651Z,96821.66
2022-12-03T17:15:38.587Z,96812.78
2022-12-03T17:18:07.926Z,96815.72
2022-12-03T17:20:38.484Z,96823.53
2022-12-03T17:23:06.904Z,96825.72
2022-12-03T17:25:35.708Z,96825.72
2022-12-03T17:28:04.116Z,96820.31
2022-12-03T17:30:32.410Z,96819.53
2022-12-03T17:33:01.058Z,96821.97
2022-12-03T17:35:29.577Z,96821.66
2022-12-03T17:37:59.276Z,96825.72
2022-12-03T17:40:27.932Z,96826.50
2022-12-03T17:42:56.289Z,96829.22
2022-12-03T17:45:24.603Z,96819.53
2022-12-03T17:47:53.202Z,96816.31
2022-12-03T17:50:21.782Z,96828.41
2022-12-03T17:52:50.071Z,96817.91
2022-12-03T17:55:30.961Z,96823.88
2022-12-03T17:58:04.745Z,96816.84
2022-12-03T18:00:33.537Z,96810.38
2022-12-03T18:03:02.046Z,96810.94
2022-12-03T18:05:30.380Z,96814.41
2022-12-03T18:07:58.857Z,96811.19
2022-12-03T18:10:28.938Z,96809.31
2022-12-03T18:13:01.702Z,96803.13
2022-12-03T18:15:31.056Z,96806.88
2022-12-03T18:17:59.659Z,96798.00
2022-12-03T18:20:28.399Z,96806.63
2022-12-03T18:22:58.203Z,96815.78
2022-12-03T18:25:28.797Z,96804.72
2022-12-03T18:27:57.205Z,96789.94
2022-12-03T18:30:25.704Z,96794.78
2022-12-03T18:32:53.974Z,96785.34
2022-12-03T18:35:22.697Z,96789.94
2022-12-03T18:37:52.326Z,96785.09
2022-12-03T18:40:24.935Z,96790.72
2022-12-03T18:42:56.956Z,96783.47
2022-12-03T18:45:25.460Z,96780.75
2022-12-03T18:47:54.742Z,96782.66
2022-12-03T18:50:23.298Z,96771.38
2022-12-03T18:52:51.609Z,96771.63
2022-12-03T18:55:22.824Z,96769.75
2022-12-03T18:57:51.119Z,96780.75
2022-12-03T19:00:21.637Z,96775.91
2022-12-03T19:03:05.340Z,96782.66
2022-12-03T19:05:35.982Z,96775.38
2022-12-03T19:08:12.570Z,96775.38
2022-12-03T19:10:41.892Z,96779.16
2022-12-03T19:13:10.375Z,96773.78
2022-12-03T19:15:41.179Z,96766.78
2022-12-03T19:18:09.540Z,96763.56
2022-12-03T19:20:41.840Z,96758.72
2022-12-03T19:23:10.267Z,96769.47
2022-12-03T19:25:38.773Z,96767.03
2022-12-03T19:28:07.764Z,96759.50
2022-12-03T19:30:36.259Z,96767.88
2022-12-03T19:33:06.015Z,96771.63
2022-12-03T19:35:40.091Z,96781.06
2022-12-03T19:38:08.478Z,96768.41
2022-12-03T19:40:36.844Z,96761.66
2022-12-03T19:43:05.170Z,96757.63
2022-12-03T19:45:33.479Z,96756.00
2022-12-03T19:48:02.086Z,96750.88
2022-12-03T19:50:31.919Z,96753.31
2022-12-03T19:53:00.187Z,96752.25
2022-12-03T19:55:28.611Z,96750.63
2022-12-03T19:57:56.946Z,96750.88
2022-12-03T20:00:25.298Z,96743.63
2022-12-03T20:02:53.726Z,96756.81
2022-12-03T20:05:22.100Z,96756.53
2022-12-03T20:07:51.890Z,96762.44
2022-12-03T20:10:20.320Z,96764.63
2022-12-03T20:12:48.734Z,96765.19
2022-12-03T20:15:17.314Z,96759.78
2022-12-03T20:17:45.691Z,96763.81
2022-12-03T20:20:14.650Z,96753.31
2022-12-03T20:22:43.017Z,96758.69
2022-12-03T20:25:13.434Z,96759.22
2022-12-03T20:27:41.797Z,96757.63
2022-12-03T20:30:11.455Z,96741.75
2022-12-03T20:32:45.120Z,96749.03
2022-12-03T20:35:13.902Z,96745.78
2022-12-03T20:37:42.235Z,96741.50
2022-12-03T20:40:13.072Z,96747.41
2022-12-03T20:42:41.407Z,96747.66
2022-12-03T20:45:11.398Z,96748.50
2022-12-03T20:47:39.746Z,96754.16
2022-12-03T20:50:09.449Z,96752.53
2022-12-03T20:52:37.964Z,96743.09
2022-12-03T20:55:07.141Z,96743.66
2022-12-03T20:57:36.857Z,96743.09
2022-12-03T21:00:07.352Z,96735.56
2022-12-03T21:02:35.744Z,96730.19
2022-12-03T21:05:04.349Z,96731.53
2022-12-03T21:07:32.852Z,96740.44
2022-12-03T21:10:01.417Z,96734.22
2022-12-03T21:12:29.870Z,96737.16
2022-12-03T21:14:59.470Z,96739.34
2022-12-03T21:17:28.234Z,96736.38
2022-12-03T21:19:56.876Z,96726.69
2022-12-03T21:22:25.526Z,96727.75
2022-12-03T21:24:53.893Z,96722.13
2022-12-03T21:27:22.525Z,96715.38
2022-12-03T21:29:51.260Z,96722.13
2022-12-03T21:32:21.070Z,96718.88
2022-12-03T21:34:49.458Z,96711.88
2022-12-03T21:37:17.951Z,96714.03
2022-12-03T21:39:46.247Z,96703.81
2022-12-03T21:42:34.100Z,96699.50
2022-12-03T21:45:03.552Z,96698.44
2022-12-03T21:47:37.348Z,96695.75
2022-12-03T21:50:08.371Z,96685.50
2022-12-03T21:52:36.995Z,96675.81
2022-12-03T21:55:06.330Z,96689.53
2022-12-03T21:57:37.595Z,96698.44
2022-12-03T22:00:09.047Z,96694.38
2022-12-03T22:02:42.046Z,96691.94
2022-12-03T22:05:12.218Z,96696.81
2022-12-03T22:07:41.752Z,96697.59
2022-12-03T22:10:12.525Z,96692.22
2022-12-03T22:12:41.981Z,96686.59
2022-12-03T22:15:18.128Z,96686.59
2022-12-03T22:17:48.891Z,96691.41
2022-12-03T22:20:17.818Z,96688.72
2022-12-03T22:22:46.275Z,96686.59
2022-12-03T22:25:14.671Z,96696.78
2022-12-03T22:27:43.051Z,96693.03
2022-12-03T22:30:12.051Z,96679.59
2022-12-03T22:32:40.561Z,96666.91
2022-12-03T22:35:10.702Z,96669.63
2022-12-03T22:37:39.049Z,96670.97
2022-12-03T22:40:08.918Z,96683.38
2022-12-03T22:42:37.224Z,96683.63
2022-12-03T22:45:07.080Z,96696.00
2022-12-03T22:47:35.670Z,96697.09
2022-12-03T22:50:04.212Z,96685.53
2022-12-03T22:52:33.994Z,96673.13
2022-12-03T22:55:02.331Z,96665.56
2022-12-03T22:57:31.848Z,96670.69
2022-12-03T23:00:00.220Z,96669.91
2022-12-03T23:02:28.730Z,96660.47
2022-12-03T23:04:57.373Z,96658.31
2022-12-03T23:07:25.857Z,96660.19
2022-12-03T23:09:55.971Z,96654.81
2022-12-03T23:12:24.759Z,96659.94
2022-12-03T23:14:55.283Z,96670.97
2022-12-03T23:17:23.650Z,96673.13
2022-12-03T23:19:52.144Z,96686.03
2022-12-03T23:22:20.541Z,96676.34
2022-12-03T23:24:49.399Z,96669.91
2022-12-03T23:27:19.126Z,96658.31
2022-12-03T23:29:47.604Z,96651.31
2022-12-03T23:32:16.702Z,96652.66
2022-12-03T23:34:45.419Z,96640.28
2022-12-03T23:37:13.733Z,96637.88
2022-12-03T23:39:42.124Z,96633.81
2022-12-03T23:42:10.437Z,96642.72
2022-12-03T23:44:40.096Z,96640.56
2022-12-03T23:47:08.521Z,96636.75
2022-12-03T23:49:37.019Z,96634.63
2022-12-03T23:52:05.449Z,96631.69
2022-12-03T23:54:34.057Z,96633.28
2022-12-03T23:57:02.335Z,96635.16
2022-12-03T23:59:31.058Z,96636.50
